createdAt,value
2019-01-14T00:00:53.986Z,7.30
2019-01-14T00:01:53.957Z,7.36
2019-01-14T00:02:53.956Z,7.37
2019-01-14T00:03:53.944Z,7.32
2019-01-14T00:04:55.669Z,7.27
2019-01-14T00:05:53.927Z,7.27
2019-01-14T00:06:53.919Z,7.30
2019-01-14T00:07:53.905Z,7.27
2019-01-14T00:08:53.895Z,7.26
2019-01-14T00:09:53.891Z,7.26
2019-01-14T00:10:53.898Z,7.27
2019-01-14T00:11:53.873Z,7.24
2019-01-14T00:12:53.881Z,7.27
2019-01-14T00:13:53.831Z,7.30
2019-01-14T00:14:53.846Z,7.27
2019-01-14T00:15:53.820Z,7.27
2019-01-14T00:16:54.645Z,7.15
2019-01-14T00:17:53.806Z,7.08
2019-01-14T00:18:53.808Z,7.11
2019-01-14T00:19:53.793Z,6.99
2019-01-14T00:20:53.809Z,6.89
2019-01-14T00:21:53.772Z,6.91
2019-01-14T00:22:53.782Z,7.04
2019-01-14T00:23:53.726Z,6.89
2019-01-14T00:24:53.742Z,6.91
2019-01-14T00:25:53.727Z,6.94
2019-01-14T00:26:53.701Z,6.79
2019-01-14T00:27:54.537Z,6.75
2019-01-14T00:28:53.682Z,6.75
2019-01-14T00:29:53.708Z,6.78
2019-01-14T00:30:53.659Z,6.73
2019-01-14T00:31:53.671Z,6.65
2019-01-14T00:32:53.634Z,6.68
2019-01-14T00:33:53.635Z,6.71
2019-01-14T00:34:53.624Z,6.68
2019-01-14T00:35:53.627Z,6.81
2019-01-14T00:36:53.592Z,6.72
2019-01-14T00:37:53.586Z,6.79
2019-01-14T00:38:53.572Z,6.81
2019-01-14T00:39:53.578Z,6.89
2019-01-14T00:40:53.572Z,6.90
2019-01-14T00:41:53.579Z,6.83
2019-01-14T00:42:53.540Z,6.76
2019-01-14T00:43:53.524Z,6.79
2019-01-14T00:44:53.525Z,6.78
2019-01-14T00:45:53.508Z,6.69
2019-01-14T00:46:53.489Z,6.72
2019-01-14T00:47:53.489Z,6.71
2019-01-14T00:48:53.510Z,6.64
2019-01-14T00:49:53.470Z,6.71
2019-01-14T00:50:53.470Z,6.79
2019-01-14T00:51:53.444Z,6.89
2019-01-14T00:52:53.432Z,6.87
2019-01-14T00:53:53.418Z,6.76
2019-01-14T00:54:53.412Z,6.89
2019-01-14T00:55:53.435Z,6.89
2019-01-14T00:56:53.403Z,6.76
2019-01-14T00:57:53.361Z,6.81
2019-01-14T00:58:53.374Z,6.79
2019-01-14T00:59:53.351Z,6.64
2019-01-14T01:00:53.372Z,6.68
2019-01-14T01:01:53.355Z,6.72
2019-01-14T01:02:53.318Z,6.68
2019-01-14T01:03:53.333Z,6.68
2019-01-14T01:04:53.295Z,6.68
2019-01-14T01:05:53.304Z,6.69
2019-01-14T01:06:53.301Z,6.64
2019-01-14T01:07:53.261Z,6.69
2019-01-14T01:08:53.246Z,6.68
2019-01-14T01:09:53.288Z,6.60
2019-01-14T01:10:53.256Z,6.60
2019-01-14T01:11:53.213Z,6.63
2019-01-14T01:12:53.210Z,6.58
2019-01-14T01:13:53.229Z,6.63
2019-01-14T01:14:53.201Z,6.61
2019-01-14T01:15:53.247Z,6.63
2019-01-14T01:16:53.177Z,6.58
2019-01-14T01:17:53.175Z,6.51
2019-01-14T01:18:53.171Z,6.54
2019-01-14T01:19:53.197Z,6.54
2019-01-14T01:20:53.149Z,6.53
2019-01-14T01:21:53.121Z,6.51
2019-01-14T01:22:53.084Z,6.54
2019-01-14T01:23:53.106Z,6.64
2019-01-14T01:24:53.074Z,6.53
2019-01-14T01:25:53.085Z,6.60
2019-01-14T01:26:53.124Z,6.50
2019-01-14T01:27:53.070Z,6.48
2019-01-14T01:28:53.058Z,6.48
2019-01-14T01:32:40.763Z,6.55
2019-01-14T01:33:41.691Z,6.48
2019-01-14T01:34:41.675Z,6.40
2019-01-14T01:35:41.667Z,6.50
2019-01-14T01:36:41.667Z,6.50
2019-01-14T01:37:41.665Z,6.43
2019-01-14T01:38:41.631Z,6.50
2019-01-14T01:39:41.617Z,6.43
2019-01-14T01:40:41.608Z,6.38
2019-01-14T01:41:41.619Z,6.32
2019-01-14T01:42:41.616Z,6.36
2019-01-14T01:43:41.587Z,6.39
2019-01-14T01:44:41.817Z,6.20
2019-01-14T01:45:41.542Z,6.28
2019-01-14T01:46:41.544Z,6.21
2019-01-14T01:47:41.547Z,6.28
2019-01-14T01:48:41.540Z,6.27
2019-01-14T01:49:41.508Z,6.20
2019-01-14T01:50:41.542Z,6.13
2019-01-14T01:51:41.482Z,6.13
2019-01-14T01:52:41.493Z,5.99
2019-01-14T01:53:41.517Z,6.08
2019-01-14T01:54:41.484Z,6.06
2019-01-14T01:55:41.480Z,6.01
2019-01-14T01:56:41.493Z,5.98
2019-01-14T01:57:41.443Z,6.01
2019-01-14T01:58:41.436Z,6.01
2019-01-14T01:59:41.424Z,6.01
2019-01-14T02:00:41.390Z,6.01
2019-01-14T02:01:41.387Z,5.92
2019-01-14T02:02:41.401Z,5.98
2019-01-14T02:03:41.408Z,5.95
2019-01-14T02:04:41.344Z,5.96
2019-01-14T02:05:41.349Z,5.92
2019-01-14T02:06:41.369Z,5.90
2019-01-14T02:07:42.164Z,5.96
2019-01-14T02:08:41.312Z,5.98
2019-01-14T02:09:41.331Z,5.90
2019-01-14T02:10:41.330Z,5.95
2019-01-14T02:11:41.281Z,5.93
2019-01-14T02:12:41.271Z,5.92
2019-01-14T02:13:41.294Z,5.83
2019-01-14T02:14:41.263Z,5.85
2019-01-14T02:15:41.230Z,5.85
2019-01-14T02:16:41.228Z,5.92
2019-01-14T02:17:41.256Z,5.90
2019-01-14T02:18:41.212Z,5.98
2019-01-14T02:19:41.202Z,5.92
2019-01-14T02:20:41.186Z,6.02
2019-01-14T02:21:41.186Z,5.96
2019-01-14T02:22:41.155Z,5.93
2019-01-14T02:23:41.158Z,5.98
2019-01-14T02:24:41.131Z,5.98
2019-01-14T02:25:41.119Z,5.88
2019-01-14T02:26:41.136Z,5.88
2019-01-14T02:27:41.117Z,5.87
2019-01-14T02:28:41.100Z,5.96
2019-01-14T02:29:41.112Z,5.78
2019-01-14T02:30:41.085Z,5.83
2019-01-14T02:31:41.055Z,5.84
2019-01-14T02:32:41.045Z,5.81
2019-01-14T02:33:41.057Z,5.85
2019-01-14T02:34:41.021Z,5.83
2019-01-14T02:35:41.011Z,5.83
2019-01-14T02:36:48.328Z,5.84
2019-01-14T02:37:40.986Z,5.74
2019-01-14T02:38:40.973Z,5.77
2019-01-14T02:39:40.984Z,5.78
2019-01-14T02:40:40.997Z,5.80
2019-01-14T02:41:40.929Z,5.78
2019-01-14T02:42:40.941Z,5.85
2019-01-14T02:43:40.909Z,5.80
2019-01-14T02:44:40.918Z,5.83
2019-01-14T02:45:40.918Z,5.81
2019-01-14T02:46:40.908Z,5.87
2019-01-14T02:47:40.910Z,5.92
2019-01-14T02:48:40.884Z,5.87
2019-01-14T02:49:40.868Z,5.92
2019-01-14T02:50:40.854Z,5.84
2019-01-14T02:51:40.836Z,5.75
2019-01-14T02:52:40.835Z,5.87
2019-01-14T02:53:40.875Z,5.70
2019-01-14T02:54:40.809Z,5.73
2019-01-14T02:55:40.799Z,5.75
2019-01-14T02:56:40.812Z,5.67
2019-01-14T02:57:40.776Z,5.73
2019-01-14T02:58:40.790Z,5.73
2019-01-14T02:59:40.762Z,5.65
2019-01-14T03:00:40.790Z,5.74
2019-01-14T03:01:40.751Z,5.58
2019-01-14T03:02:40.721Z,5.62
2019-01-14T03:03:40.707Z,5.58
2019-01-14T03:04:40.717Z,5.69
2019-01-14T03:05:40.715Z,5.60
2019-01-14T03:06:40.696Z,5.59
2019-01-14T03:07:40.685Z,5.48
2019-01-14T03:08:40.695Z,5.56
2019-01-14T03:09:40.662Z,5.56
2019-01-14T03:10:40.670Z,5.49
2019-01-14T03:11:40.628Z,5.51
2019-01-14T03:12:40.628Z,5.51
2019-01-14T03:13:40.618Z,5.49
2019-01-14T03:14:40.600Z,5.49
2019-01-14T03:15:40.574Z,5.45
2019-01-14T03:16:40.572Z,5.45
2019-01-14T03:17:40.569Z,5.44
2019-01-14T03:18:40.596Z,5.45
2019-01-14T03:19:40.546Z,5.42
2019-01-14T03:20:40.552Z,5.33
2019-01-14T03:21:40.522Z,5.32
2019-01-14T03:22:40.502Z,5.40
2019-01-14T03:23:40.526Z,5.40
2019-01-14T03:24:40.493Z,5.33
2019-01-14T03:25:40.486Z,5.26
2019-01-14T03:26:40.512Z,5.51
2019-01-14T03:27:40.465Z,5.47
2019-01-14T03:28:40.426Z,5.40
2019-01-14T03:29:40.421Z,5.41
2019-01-14T03:30:40.442Z,5.45
2019-01-14T03:31:40.397Z,5.47
2019-01-14T03:35:50.349Z,5.44
2019-01-14T03:36:51.367Z,5.42
2019-01-14T03:37:51.357Z,5.44
2019-01-14T03:38:51.313Z,5.48
2019-01-14T03:39:51.330Z,5.41
2019-01-14T03:40:51.319Z,5.24
2019-01-14T03:41:51.279Z,5.26
2019-01-14T03:42:51.328Z,5.24
2019-01-14T03:43:51.265Z,5.19
2019-01-14T03:44:51.262Z,5.24
2019-01-14T03:45:51.244Z,5.41
2019-01-14T03:46:51.239Z,5.32
2019-01-14T03:47:51.216Z,5.27
2019-01-14T03:48:51.195Z,5.29
2019-01-14T03:49:51.198Z,5.14
2019-01-14T03:50:51.200Z,5.27
2019-01-14T03:51:51.172Z,5.35
2019-01-14T03:52:51.156Z,5.24
2019-01-14T03:53:51.144Z,5.29
2019-01-14T03:54:51.142Z,5.23
2019-01-14T03:55:51.131Z,5.19
2019-01-14T03:56:51.128Z,5.22
2019-01-14T03:57:51.108Z,5.27
2019-01-14T03:58:51.089Z,5.38
2019-01-14T03:59:51.117Z,5.29
2019-01-14T04:00:51.093Z,5.35
2019-01-14T04:01:51.099Z,5.29
2019-01-14T04:02:51.046Z,5.29
2019-01-14T04:03:51.061Z,5.32
2019-01-14T04:04:51.036Z,5.24
2019-01-14T04:05:51.025Z,5.23
2019-01-14T04:06:51.005Z,5.24
2019-01-14T04:07:50.986Z,5.24
2019-01-14T04:08:50.988Z,5.33
2019-01-14T04:09:50.956Z,5.42
2019-01-14T04:10:50.956Z,5.40
2019-01-14T04:11:50.973Z,5.44
2019-01-14T04:12:50.938Z,5.40
2019-01-14T04:13:50.922Z,5.49
2019-01-14T04:14:50.908Z,5.47
2019-01-14T04:15:50.905Z,5.51
2019-01-14T04:16:50.899Z,5.47
2019-01-14T04:17:50.969Z,5.45
2019-01-14T04:18:50.888Z,5.45
2019-01-14T04:19:50.855Z,5.42
2019-01-14T04:20:50.850Z,5.45
2019-01-14T04:21:50.847Z,5.48
2019-01-14T04:22:50.844Z,5.49
2019-01-14T04:23:50.830Z,5.58
2019-01-14T04:24:50.847Z,5.58
2019-01-14T04:25:50.822Z,5.55
2019-01-14T04:26:50.801Z,5.55
2019-01-14T04:27:50.775Z,5.55
2019-01-14T04:28:50.785Z,5.59
2019-01-14T04:29:50.767Z,5.59
2019-01-14T04:30:50.777Z,5.55
2019-01-14T04:31:50.743Z,5.51
2019-01-14T04:32:50.735Z,5.47
2019-01-14T04:33:50.710Z,5.41
2019-01-14T04:34:50.689Z,5.45
2019-01-14T04:35:50.687Z,5.55
2019-01-14T04:36:50.708Z,5.59
2019-01-14T04:37:50.664Z,5.44
2019-01-14T04:38:50.656Z,5.47
2019-01-14T04:39:50.655Z,5.48
2019-01-14T04:40:50.639Z,5.47
2019-01-14T04:41:50.629Z,5.51
2019-01-14T04:42:50.616Z,5.45
2019-01-14T04:43:50.617Z,5.51
2019-01-14T04:44:50.600Z,5.47
2019-01-14T04:45:50.597Z,5.48
2019-01-14T04:46:50.582Z,5.52
2019-01-14T04:47:50.570Z,5.49
2019-01-14T04:48:50.546Z,5.48
2019-01-14T04:49:50.538Z,5.48
2019-01-14T04:50:50.529Z,5.47
2019-01-14T04:51:50.537Z,5.40
2019-01-14T04:52:50.503Z,5.41
2019-01-14T04:53:50.481Z,5.45
2019-01-14T04:54:50.500Z,5.42
2019-01-14T04:55:50.461Z,5.40
2019-01-14T04:56:50.474Z,5.41
2019-01-14T04:57:51.001Z,5.41
2019-01-14T04:58:50.447Z,5.41
2019-01-14T04:59:50.432Z,5.47
2019-01-14T05:00:50.452Z,5.35
2019-01-14T05:01:50.417Z,5.42
2019-01-14T05:02:50.414Z,5.42
2019-01-14T05:03:50.376Z,5.42
2019-01-14T05:04:50.372Z,5.37
2019-01-14T05:05:50.363Z,5.44
2019-01-14T05:06:50.367Z,5.40
2019-01-14T05:07:50.439Z,5.41
2019-01-14T05:08:50.331Z,5.41
2019-01-14T05:09:50.308Z,5.40
2019-01-14T05:10:50.305Z,5.42
2019-01-14T05:11:50.308Z,5.30
2019-01-14T05:12:50.295Z,5.42
2019-01-14T05:13:50.266Z,5.42
2019-01-14T05:14:50.269Z,5.41
2019-01-14T05:15:50.246Z,5.27
2019-01-14T05:16:50.274Z,5.32
2019-01-14T05:17:50.233Z,5.41
2019-01-14T05:18:50.221Z,5.26
2019-01-14T05:19:50.216Z,5.20
2019-01-14T05:20:50.201Z,5.29
2019-01-14T05:21:50.224Z,5.27
2019-01-14T05:22:50.164Z,5.24
2019-01-14T05:23:50.179Z,5.26
2019-01-14T05:24:50.179Z,5.26
2019-01-14T05:25:50.143Z,5.22
2019-01-14T05:26:50.146Z,5.20
2019-01-14T05:27:50.109Z,5.32
2019-01-14T05:28:50.111Z,5.19
2019-01-14T05:29:51.015Z,5.27
2019-01-14T05:30:50.077Z,5.24
2019-01-14T05:31:50.083Z,5.26
2019-01-14T05:32:50.095Z,5.27
2019-01-14T05:33:50.055Z,5.17
2019-01-14T05:34:50.042Z,5.20
2019-01-14T05:36:59.686Z,5.17
2019-01-14T05:38:00.682Z,5.19
2019-01-14T05:39:00.646Z,5.12
2019-01-14T05:40:00.629Z,5.17
2019-01-14T05:41:00.632Z,5.20
2019-01-14T05:42:00.645Z,5.15
2019-01-14T05:43:00.597Z,5.23
2019-01-14T05:44:00.581Z,5.12
2019-01-14T05:45:00.589Z,5.20
2019-01-14T05:46:00.581Z,5.20
2019-01-14T05:47:00.574Z,5.19
2019-01-14T05:48:00.565Z,5.20
2019-01-14T05:49:00.535Z,5.05
2019-01-14T05:50:00.513Z,5.06
2019-01-14T05:51:00.541Z,5.09
2019-01-14T05:52:00.536Z,5.04
2019-01-14T05:53:00.510Z,5.05
2019-01-14T05:54:00.493Z,5.12
2019-01-14T05:55:00.485Z,5.06
2019-01-14T05:56:00.455Z,5.08
2019-01-14T05:57:00.464Z,5.01
2019-01-14T05:58:00.447Z,5.11
2019-01-14T05:59:00.421Z,5.09
2019-01-14T06:00:00.417Z,5.09
2019-01-14T06:01:00.390Z,5.06
2019-01-14T06:02:00.400Z,5.09
2019-01-14T06:03:00.394Z,5.05
2019-01-14T06:04:00.361Z,5.04
2019-01-14T06:05:00.354Z,5.04
2019-01-14T06:06:00.343Z,5.09
2019-01-14T06:07:00.348Z,5.05
2019-01-14T06:08:00.320Z,5.08
2019-01-14T06:09:00.298Z,5.06
2019-01-14T06:10:00.339Z,5.14
2019-01-14T06:11:00.290Z,4.99
2019-01-14T06:12:00.295Z,5.01
2019-01-14T06:13:00.264Z,5.11
2019-01-14T06:14:00.259Z,4.94
2019-01-14T06:15:00.271Z,5.08
2019-01-14T06:16:00.252Z,5.09
2019-01-14T06:17:00.239Z,5.12
2019-01-14T06:18:00.217Z,5.12
2019-01-14T06:19:00.241Z,4.99
2019-01-14T06:20:00.188Z,5.15
2019-01-14T06:21:00.193Z,5.02
2019-01-14T06:22:00.184Z,5.04
2019-01-14T06:23:00.151Z,5.09
2019-01-14T06:24:00.146Z,5.12
2019-01-14T06:25:00.160Z,4.97
2019-01-14T06:26:00.142Z,5.11
2019-01-14T06:27:00.134Z,5.14
2019-01-14T06:28:00.099Z,5.11
2019-01-14T06:29:00.091Z,5.02
2019-01-14T06:30:00.093Z,5.08
2019-01-14T06:31:00.069Z,5.01
2019-01-14T06:32:00.061Z,5.09
2019-01-14T06:33:00.112Z,5.08
2019-01-14T06:34:00.039Z,5.01
2019-01-14T06:35:00.026Z,4.99
2019-01-14T06:36:00.014Z,4.99
2019-01-14T06:37:00.015Z,5.01
2019-01-14T06:38:00.006Z,5.05
2019-01-14T06:38:59.994Z,5.02
2019-01-14T06:39:59.962Z,5.02
2019-01-14T06:40:59.959Z,5.09
2019-01-14T06:41:59.979Z,5.06
2019-01-14T06:42:59.961Z,5.04
2019-01-14T06:43:59.919Z,5.11
2019-01-14T06:44:59.904Z,5.06
2019-01-14T06:45:59.908Z,5.04
2019-01-14T06:46:59.907Z,5.09
2019-01-14T06:47:59.900Z,5.06
2019-01-14T06:48:59.997Z,4.94
2019-01-14T06:49:59.846Z,5.08
2019-01-14T06:50:59.844Z,5.09
2019-01-14T06:51:59.829Z,4.93
2019-01-14T06:52:59.823Z,4.99
2019-01-14T06:53:59.829Z,5.06
2019-01-14T06:54:59.832Z,5.08
2019-01-14T06:55:59.791Z,5.05
2019-01-14T06:56:59.924Z,5.01
2019-01-14T06:57:59.820Z,5.05
2019-01-14T06:58:59.766Z,5.04
2019-01-14T06:59:59.775Z,5.08
2019-01-14T07:00:59.737Z,4.91
2019-01-14T07:01:59.732Z,4.97
2019-01-14T07:03:00.001Z,4.94
2019-01-14T07:03:59.990Z,4.96
2019-01-14T07:05:03.005Z,4.93
2019-01-14T07:05:59.833Z,4.91
2019-01-14T07:06:59.679Z,4.96
2019-01-14T07:08:00.088Z,4.97
2019-01-14T07:08:59.673Z,4.97
2019-01-14T07:09:59.671Z,4.88
2019-01-14T07:10:59.617Z,4.87
2019-01-14T07:11:59.653Z,4.94
2019-01-14T07:12:59.858Z,4.90
2019-01-14T07:13:59.606Z,4.91
2019-01-14T07:14:59.846Z,4.97
2019-01-14T07:15:59.729Z,4.97
2019-01-14T07:16:59.598Z,4.93
2019-01-14T07:17:59.586Z,4.84
2019-01-14T07:19:00.045Z,5.02
2019-01-14T07:19:59.540Z,4.99
2019-01-14T07:20:59.524Z,4.96
2019-01-14T07:21:59.831Z,4.94
2019-01-14T07:22:59.510Z,4.96
2019-01-14T07:23:59.679Z,4.99
2019-01-14T07:24:59.478Z,5.02
2019-01-14T07:25:59.465Z,4.96
2019-01-14T07:26:59.460Z,4.99
2019-01-14T07:27:59.728Z,4.91
2019-01-14T07:28:59.511Z,4.86
2019-01-14T07:29:59.415Z,4.93
2019-01-14T07:30:59.409Z,4.94
2019-01-14T07:31:59.576Z,4.97
2019-01-14T07:32:59.580Z,4.91
2019-01-14T07:33:59.495Z,5.06
2019-01-14T07:34:59.719Z,5.11
2019-01-14T07:35:59.392Z,4.97
2019-01-14T07:38:39.383Z,5.11
2019-01-14T07:39:40.393Z,4.94
2019-01-14T07:40:40.417Z,4.97
2019-01-14T07:41:40.342Z,4.99
2019-01-14T07:42:40.502Z,5.02
2019-01-14T07:43:40.334Z,4.96
2019-01-14T07:44:40.321Z,5.02
2019-01-14T07:45:40.303Z,5.04
2019-01-14T07:46:40.331Z,4.97
2019-01-14T07:47:40.251Z,5.06
2019-01-14T07:48:40.446Z,5.02
2019-01-14T07:49:40.225Z,5.04
2019-01-14T07:50:40.251Z,5.15
2019-01-14T07:51:41.473Z,5.09
2019-01-14T07:52:40.314Z,5.04
2019-01-14T07:53:40.203Z,5.05
2019-01-14T07:54:40.335Z,4.97
2019-01-14T07:55:40.202Z,5.04
2019-01-14T07:56:40.161Z,4.99
2019-01-14T07:57:40.357Z,4.97
2019-01-14T07:58:40.167Z,5.02
2019-01-14T07:59:40.850Z,4.91
2019-01-14T08:00:40.137Z,4.93
2019-01-14T08:01:40.112Z,4.90
2019-01-14T08:02:40.098Z,4.86
2019-01-14T08:03:40.097Z,4.83
2019-01-14T08:04:40.079Z,4.75
2019-01-14T08:05:40.086Z,4.69
2019-01-14T08:06:40.087Z,4.69
2019-01-14T08:07:40.041Z,4.67
2019-01-14T08:08:40.043Z,4.68
2019-01-14T08:09:40.010Z,4.69
2019-01-14T08:10:40.035Z,4.67
2019-01-14T08:11:40.295Z,4.67
2019-01-14T08:12:40.011Z,4.65
2019-01-14T08:13:40.209Z,4.67
2019-01-14T08:14:42.759Z,4.67
2019-01-14T08:15:40.395Z,4.67
2019-01-14T08:16:40.835Z,4.67
2019-01-14T08:17:40.357Z,4.65
2019-01-14T08:18:39.909Z,4.67
2019-01-14T08:19:41.278Z,4.71
2019-01-14T08:20:39.889Z,4.67
2019-01-14T08:21:39.877Z,4.61
2019-01-14T08:22:39.862Z,4.59
2019-01-14T08:23:39.855Z,4.59
2019-01-14T08:24:39.957Z,4.61
2019-01-14T08:25:39.876Z,4.64
2019-01-14T08:26:40.802Z,4.56
2019-01-14T08:27:40.378Z,4.68
2019-01-14T08:28:40.734Z,4.59
2019-01-14T08:29:39.813Z,4.69
2019-01-14T08:30:39.811Z,4.67
2019-01-14T08:31:39.783Z,4.67
2019-01-14T08:32:39.802Z,4.67
2019-01-14T08:33:39.749Z,4.64
2019-01-14T08:34:41.548Z,4.74
2019-01-14T08:35:39.800Z,4.67
2019-01-14T08:36:39.723Z,4.74
2019-01-14T08:37:39.714Z,4.68
2019-01-14T08:38:39.875Z,4.64
2019-01-14T08:39:39.698Z,4.68
2019-01-14T08:40:39.718Z,4.59
2019-01-14T08:41:39.656Z,4.64
2019-01-14T08:42:39.769Z,4.64
2019-01-14T08:43:39.639Z,4.67
2019-01-14T08:44:39.677Z,4.71
2019-01-14T08:45:39.673Z,4.69
2019-01-14T08:46:39.682Z,4.68
2019-01-14T08:47:40.072Z,4.62
2019-01-14T08:48:39.625Z,4.67
2019-01-14T08:49:39.592Z,4.69
2019-01-14T08:50:39.598Z,4.75
2019-01-14T08:51:39.559Z,4.77
2019-01-14T08:52:39.558Z,4.80
2019-01-14T08:53:39.540Z,4.75
2019-01-14T08:54:39.535Z,4.68
2019-01-14T08:55:39.587Z,4.69
2019-01-14T08:56:39.553Z,4.77
2019-01-14T08:57:39.557Z,4.79
2019-01-14T08:58:39.713Z,4.79
2019-01-14T08:59:39.491Z,4.75
2019-01-14T09:00:40.432Z,4.80
2019-01-14T09:01:39.545Z,4.77
2019-01-14T09:02:39.444Z,4.79
2019-01-14T09:03:39.488Z,4.71
2019-01-14T09:04:39.478Z,4.72
2019-01-14T09:05:39.832Z,4.79
2019-01-14T09:06:39.434Z,4.80
2019-01-14T09:07:39.408Z,4.83
2019-01-14T09:08:39.393Z,4.79
2019-01-14T09:09:39.913Z,4.75
2019-01-14T09:10:39.370Z,4.75
2019-01-14T09:11:39.445Z,4.71
2019-01-14T09:12:39.360Z,4.69
2019-01-14T09:13:39.358Z,4.69
2019-01-14T09:14:39.343Z,4.75
2019-01-14T09:15:39.390Z,4.69
2019-01-14T09:16:39.353Z,4.68
2019-01-14T09:17:39.610Z,4.65
2019-01-14T09:18:39.285Z,4.65
2019-01-14T09:19:39.321Z,4.64
2019-01-14T09:20:39.278Z,4.68
2019-01-14T09:21:39.396Z,4.69
2019-01-14T09:22:39.242Z,4.72
2019-01-14T09:23:39.243Z,4.80
2019-01-14T09:24:39.339Z,4.68
2019-01-14T09:25:39.198Z,4.67
2019-01-14T09:26:39.178Z,4.68
2019-01-14T09:27:39.829Z,4.77
2019-01-14T09:28:39.219Z,4.83
2019-01-14T09:29:39.165Z,4.93
2019-01-14T09:30:39.162Z,4.90
2019-01-14T09:31:39.175Z,4.88
2019-01-14T09:32:39.110Z,4.91
2019-01-14T09:33:39.096Z,4.94
2019-01-14T09:34:39.111Z,4.97
2019-01-14T09:35:39.085Z,5.05
2019-01-14T09:36:39.078Z,4.99
2019-01-14T09:37:39.056Z,5.06
2019-01-14T09:39:49.405Z,5.05
2019-01-14T09:40:50.381Z,5.05
2019-01-14T09:41:50.363Z,4.94
2019-01-14T09:42:50.373Z,4.91
2019-01-14T09:43:50.373Z,4.93
2019-01-14T09:44:50.355Z,4.96
2019-01-14T09:45:50.322Z,4.99
2019-01-14T09:46:50.310Z,5.08
2019-01-14T09:47:50.324Z,4.97
2019-01-14T09:48:50.318Z,5.14
2019-01-14T09:49:50.315Z,5.05
2019-01-14T09:50:50.295Z,5.14
2019-01-14T09:51:50.254Z,5.23
2019-01-14T09:52:50.281Z,5.17
2019-01-14T09:53:50.255Z,5.20
2019-01-14T09:54:50.240Z,5.15
2019-01-14T09:55:50.497Z,5.27
2019-01-14T09:56:50.223Z,5.20
2019-01-14T09:57:50.249Z,5.11
2019-01-14T09:58:50.194Z,5.17
2019-01-14T09:59:51.205Z,5.14
2019-01-14T10:00:50.248Z,5.15
2019-01-14T10:01:50.167Z,5.09
2019-01-14T10:02:50.186Z,5.02
2019-01-14T10:03:50.129Z,5.01
2019-01-14T10:04:50.127Z,5.08
2019-01-14T10:05:50.117Z,5.01
2019-01-14T10:06:50.130Z,5.08
2019-01-14T10:07:50.132Z,5.05
2019-01-14T10:08:50.089Z,5.11
2019-01-14T10:09:50.096Z,5.06
2019-01-14T10:10:50.111Z,5.02
2019-01-14T10:11:50.052Z,5.08
2019-01-14T10:12:50.028Z,4.97
2019-01-14T10:13:50.010Z,5.11
2019-01-14T10:14:50.010Z,4.97
2019-01-14T10:15:49.997Z,5.14
2019-01-14T10:16:50.047Z,5.06
2019-01-14T10:17:49.974Z,4.97
2019-01-14T10:18:50.219Z,5.06
2019-01-14T10:19:49.959Z,5.05
2019-01-14T10:20:49.983Z,4.99
2019-01-14T10:21:49.987Z,5.08
2019-01-14T10:22:49.914Z,5.02
2019-01-14T10:23:49.926Z,5.04
2019-01-14T10:24:49.995Z,5.04
2019-01-14T10:25:49.932Z,5.11
2019-01-14T10:26:50.144Z,5.11
2019-01-14T10:27:50.036Z,5.14
2019-01-14T10:28:49.860Z,5.12
2019-01-14T10:29:49.887Z,5.08
2019-01-14T10:30:49.895Z,5.09
2019-01-14T10:31:49.891Z,5.20
2019-01-14T10:32:50.045Z,5.32
2019-01-14T10:33:49.801Z,5.27
2019-01-14T10:34:49.834Z,5.17
2019-01-14T10:35:49.803Z,5.14
2019-01-14T10:36:49.793Z,5.14
2019-01-14T10:37:49.785Z,5.11
2019-01-14T10:38:50.433Z,5.23
2019-01-14T10:39:49.741Z,5.12
2019-01-14T10:40:49.737Z,5.24
2019-01-14T10:41:49.709Z,5.22
2019-01-14T10:42:49.694Z,5.23
2019-01-14T10:43:49.785Z,5.09
2019-01-14T10:44:49.685Z,5.23
2019-01-14T10:45:49.906Z,5.22
2019-01-14T10:46:49.843Z,5.22
2019-01-14T10:47:49.897Z,5.45
2019-01-14T10:48:50.133Z,5.44
2019-01-14T10:49:49.736Z,5.41
2019-01-14T10:50:49.830Z,5.30
2019-01-14T10:51:49.904Z,5.29
2019-01-14T10:52:50.138Z,5.38
2019-01-14T10:53:49.826Z,5.40
2019-01-14T10:54:49.670Z,5.30
2019-01-14T10:55:49.728Z,5.33
2019-01-14T10:56:50.289Z,5.33
2019-01-14T10:57:49.530Z,5.38
2019-01-14T10:58:49.570Z,5.40
2019-01-14T10:59:49.530Z,5.51
2019-01-14T11:00:49.596Z,5.42
2019-01-14T11:01:49.731Z,5.37
2019-01-14T11:02:49.515Z,5.40
2019-01-14T11:03:49.473Z,5.40
2019-01-14T11:04:49.477Z,5.45
2019-01-14T11:05:49.487Z,5.45
2019-01-14T11:06:49.506Z,5.41
2019-01-14T11:07:49.767Z,5.40
2019-01-14T11:08:49.407Z,5.35
2019-01-14T11:09:50.026Z,5.32
2019-01-14T11:10:49.445Z,5.29
2019-01-14T11:11:49.404Z,5.24
2019-01-14T11:12:49.457Z,5.27
2019-01-14T11:13:49.380Z,5.22
2019-01-14T11:14:49.415Z,5.23
2019-01-14T11:15:49.387Z,5.24
2019-01-14T11:16:50.235Z,5.14
2019-01-14T11:17:49.479Z,5.12
2019-01-14T11:18:49.409Z,5.17
2019-01-14T11:19:49.293Z,5.08
2019-01-14T11:20:49.519Z,5.04
2019-01-14T11:21:49.301Z,5.05
2019-01-14T11:22:49.417Z,5.09
2019-01-14T11:23:49.281Z,5.04
2019-01-14T11:24:50.107Z,5.11
2019-01-14T11:25:49.271Z,5.14
2019-01-14T11:26:49.222Z,5.09
2019-01-14T11:27:49.241Z,5.06
2019-01-14T11:28:49.194Z,5.08
2019-01-14T11:29:49.218Z,5.04
2019-01-14T11:30:49.188Z,5.14
2019-01-14T11:31:49.176Z,5.12
2019-01-14T11:32:49.182Z,5.12
2019-01-14T11:33:49.150Z,5.15
2019-01-14T11:34:49.221Z,5.17
2019-01-14T11:35:49.181Z,5.22
2019-01-14T11:36:49.174Z,5.20
2019-01-14T11:37:49.110Z,5.23
2019-01-14T11:38:49.124Z,5.24
2019-01-14T11:41:09.689Z,5.44
2019-01-14T11:42:10.702Z,5.47
2019-01-14T11:43:10.752Z,5.59
2019-01-14T11:44:10.620Z,5.56
2019-01-14T11:45:10.617Z,5.37
2019-01-14T11:46:10.629Z,5.42
2019-01-14T11:47:10.636Z,5.40
2019-01-14T11:48:10.602Z,5.42
2019-01-14T11:49:10.566Z,5.44
2019-01-14T11:50:10.537Z,5.35
2019-01-14T11:51:10.576Z,5.30
2019-01-14T11:52:10.543Z,5.37
2019-01-14T11:53:10.528Z,5.30
2019-01-14T11:54:10.540Z,5.32
2019-01-14T11:55:10.488Z,5.32
2019-01-14T11:56:12.317Z,5.27
2019-01-14T11:57:10.470Z,5.17
2019-01-14T11:58:10.489Z,5.15
2019-01-14T11:59:10.451Z,5.26
2019-01-14T12:00:10.446Z,5.19
2019-01-14T12:01:10.435Z,5.19
2019-01-14T12:02:10.434Z,5.15
2019-01-14T12:03:10.454Z,5.14
2019-01-14T12:04:10.421Z,5.20
2019-01-14T12:05:10.414Z,5.12
2019-01-14T12:06:10.391Z,5.17
2019-01-14T12:07:10.423Z,5.19
2019-01-14T12:08:10.401Z,5.23
2019-01-14T12:09:12.297Z,5.17
2019-01-14T12:10:10.337Z,5.15
2019-01-14T12:11:10.384Z,5.17
2019-01-14T12:12:10.336Z,5.15
2019-01-14T12:13:10.298Z,5.26
2019-01-14T12:14:10.286Z,5.27
2019-01-14T12:15:10.271Z,5.19
2019-01-14T12:16:10.268Z,5.17
2019-01-14T12:17:10.272Z,5.20
2019-01-14T12:18:10.250Z,5.15
2019-01-14T12:19:10.241Z,5.15
2019-01-14T12:20:10.210Z,5.19
2019-01-14T12:21:10.194Z,5.19
2019-01-14T12:22:10.214Z,5.14
2019-01-14T12:23:10.193Z,5.26
2019-01-14T12:24:10.173Z,5.40
2019-01-14T12:25:10.170Z,5.40
2019-01-14T12:26:10.147Z,5.37
2019-01-14T12:27:12.266Z,5.48
2019-01-14T12:28:10.173Z,5.40
2019-01-14T12:29:10.105Z,5.44
2019-01-14T12:30:10.107Z,5.47
2019-01-14T12:31:10.093Z,5.58
2019-01-14T12:32:10.108Z,5.73
2019-01-14T12:33:10.100Z,5.75
2019-01-14T12:34:10.062Z,5.65
2019-01-14T12:35:10.069Z,5.67
2019-01-14T12:36:10.034Z,5.65
2019-01-14T12:37:10.029Z,5.62
2019-01-14T12:38:10.025Z,5.51
2019-01-14T12:39:10.001Z,5.41
2019-01-14T12:40:10.011Z,5.37
2019-01-14T12:41:09.989Z,5.42
2019-01-14T12:42:09.976Z,5.44
2019-01-14T12:43:09.956Z,5.40
2019-01-14T12:44:09.978Z,5.37
2019-01-14T12:45:09.942Z,5.35
2019-01-14T12:46:09.928Z,5.41
2019-01-14T12:47:09.915Z,5.41
2019-01-14T12:48:09.899Z,5.27
2019-01-14T12:49:09.907Z,5.26
2019-01-14T12:50:09.893Z,5.37
2019-01-14T12:51:09.882Z,5.33
2019-01-14T12:52:09.852Z,5.32
2019-01-14T12:53:09.861Z,5.32
2019-01-14T12:54:09.863Z,5.17
2019-01-14T12:55:09.833Z,5.22
2019-01-14T12:56:09.826Z,5.09
2019-01-14T12:57:09.797Z,5.05
2019-01-14T12:58:09.828Z,5.12
2019-01-14T12:59:09.830Z,4.79
2019-01-14T13:00:09.781Z,4.56
2019-01-14T13:01:09.758Z,4.61
2019-01-14T13:02:09.758Z,4.65
2019-01-14T13:03:09.736Z,4.64
2019-01-14T13:04:09.751Z,4.75
2019-01-14T13:05:09.797Z,4.75
2019-01-14T13:06:09.705Z,4.71
2019-01-14T13:07:10.531Z,4.80
2019-01-14T13:08:09.702Z,4.91
2019-01-14T13:09:09.723Z,4.96
2019-01-14T13:10:10.667Z,4.88
2019-01-14T13:11:09.681Z,5.06
2019-01-14T13:12:09.688Z,5.06
2019-01-14T13:13:09.648Z,5.01
2019-01-14T13:14:09.689Z,5.06
2019-01-14T13:15:10.082Z,5.08
2019-01-14T13:16:09.625Z,5.08
2019-01-14T13:17:09.583Z,5.14
2019-01-14T13:18:09.608Z,5.20
2019-01-14T13:19:09.607Z,5.15
2019-01-14T13:20:09.602Z,5.19
2019-01-14T13:21:09.586Z,5.27
2019-01-14T13:22:09.537Z,5.11
2019-01-14T13:23:09.523Z,5.22
2019-01-14T13:24:09.548Z,5.17
2019-01-14T13:25:09.514Z,5.20
2019-01-14T13:26:09.513Z,5.24
2019-01-14T13:27:09.515Z,5.19
2019-01-14T13:28:09.469Z,5.11
2019-01-14T13:29:09.480Z,5.12
2019-01-14T13:30:09.456Z,5.15